createdAt,value
2023-04-04T00:01:00.694Z,3.27
2023-04-04T00:03:32.091Z,3.27
2023-04-04T00:06:02.964Z,3.25
2023-04-04T00:08:35.393Z,3.25
2023-04-04T00:11:06.799Z,3.24
2023-04-04T00:13:38.924Z,3.24
2023-04-04T00:16:10.521Z,3.23
2023-04-04T00:18:45.923Z,3.20
2023-04-04T00:21:15.914Z,3.17
2023-04-04T00:23:47.424Z,3.12
2023-04-04T00:26:17.900Z,3.07
2023-04-04T00:28:48.370Z,3.04
2023-04-04T00:31:26.977Z,2.96
2023-04-04T00:33:57.724Z,2.91
2023-04-04T00:36:28.972Z,2.87
2023-04-04T00:39:00.879Z,2.82
2023-04-04T00:41:30.894Z,2.78
2023-04-04T00:44:00.801Z,2.75
2023-04-04T00:46:32.020Z,2.71
2023-04-04T00:49:01.330Z,2.65
2023-04-04T00:51:45.108Z,2.59
2023-04-04T00:54:17.237Z,2.55
2023-04-04T00:56:48.305Z,2.52
2023-04-04T00:59:18.849Z,2.49
2023-04-04T01:01:50.164Z,2.47
2023-04-04T01:04:20.540Z,2.44
2023-04-04T01:06:52.027Z,2.41
2023-04-04T01:09:30.818Z,2.40
2023-04-04T01:12:01.408Z,2.35
2023-04-04T01:14:46.919Z,2.33
2023-04-04T01:17:16.912Z,2.30
2023-04-04T01:20:08.500Z,2.25
2023-04-04T01:22:47.779Z,2.19
2023-04-04T01:25:36.068Z,2.14
2023-04-04T01:28:20.894Z,2.09
2023-04-04T01:30:59.115Z,2.04
2023-04-04T01:33:36.791Z,1.99
2023-04-04T01:36:32.721Z,1.93
2023-04-04T01:39:24.349Z,1.87
2023-04-04T01:42:24.264Z,1.85
2023-04-04T01:45:04.334Z,1.82
2023-04-04T01:47:41.921Z,1.80
2023-04-04T01:50:15.326Z,1.78
2023-04-04T01:52:45.543Z,1.76
2023-04-04T01:55:15.780Z,1.74
2023-04-04T01:57:48.435Z,1.70
2023-04-04T02:00:20.521Z,1.68
2023-04-04T02:02:53.141Z,1.65
2023-04-04T02:05:27.883Z,1.63
2023-04-04T02:07:58.513Z,1.61
2023-04-04T02:10:31.648Z,1.60
2023-04-04T02:13:30.705Z,1.56
2023-04-04T02:16:01.044Z,1.57
2023-04-04T02:18:30.334Z,1.55
2023-04-04T02:21:01.238Z,1.53
2023-04-04T02:23:30.982Z,1.52
2023-04-04T02:26:02.089Z,1.49
2023-04-04T02:28:44.051Z,1.45
2023-04-04T02:31:13.755Z,1.39
2023-04-04T02:33:45.113Z,1.33
2023-04-04T02:36:14.994Z,1.29
2023-04-04T02:38:45.485Z,1.25
2023-04-04T02:41:41.664Z,1.20
2023-04-04T02:44:13.191Z,1.18
2023-04-04T02:46:43.906Z,1.18
2023-04-04T02:49:15.074Z,1.15
2023-04-04T02:51:46.789Z,1.12
2023-04-04T02:54:24.631Z,1.08
2023-04-04T02:56:57.612Z,1.03
2023-04-04T02:59:35.129Z,0.99
2023-04-04T03:02:05.345Z,0.97
2023-04-04T03:04:37.341Z,0.94
2023-04-04T03:07:08.899Z,0.89
2023-04-04T03:09:45.508Z,0.85
2023-04-04T03:12:15.280Z,0.80
2023-04-04T03:14:49.730Z,0.78
2023-04-04T03:17:42.559Z,0.73
2023-04-04T03:20:26.814Z,0.69
2023-04-04T03:22:59.949Z,0.65
2023-04-04T03:25:29.474Z,0.65
2023-04-04T03:27:59.955Z,0.61
2023-04-04T03:30:32.131Z,0.58
2023-04-04T03:33:11.759Z,0.52
2023-04-04T03:35:44.965Z,0.48
2023-04-04T03:38:15.634Z,0.46
2023-04-04T03:40:45.330Z,0.44
2023-04-04T03:43:16.420Z,0.40
2023-04-04T03:45:48.289Z,0.38
2023-04-04T03:48:17.979Z,0.37
2023-04-04T03:50:47.869Z,0.36
2023-04-04T03:53:18.746Z,0.34
2023-04-04T03:55:48.211Z,0.32
2023-04-04T03:58:20.770Z,0.30
2023-04-04T04:00:52.457Z,0.27
2023-04-04T04:03:26.708Z,0.26
2023-04-04T04:05:56.882Z,0.25
2023-04-04T04:08:28.794Z,0.24
2023-04-04T04:11:11.738Z,0.22
2023-04-04T04:13:40.984Z,0.18
2023-04-04T04:16:13.512Z,0.19
2023-04-04T04:18:42.890Z,0.15
2023-04-04T04:21:19.584Z,0.15
2023-04-04T04:23:51.709Z,0.15
2023-04-04T04:26:21.695Z,0.13
2023-04-04T04:28:54.611Z,0.11
2023-04-04T04:31:28.863Z,0.10
2023-04-04T04:33:59.237Z,0.08
2023-04-04T04:36:31.482Z,0.07
2023-04-04T04:39:01.258Z,0.03
2023-04-04T04:41:33.660Z,0.00
2023-04-04T04:44:03.797Z,-0.04
2023-04-04T04:46:40.277Z,-0.06
2023-04-04T04:49:09.690Z,-0.06
2023-04-04T04:51:40.424Z,-0.06
2023-04-04T04:54:10.143Z,-0.05
2023-04-04T04:56:39.253Z,-0.07
2023-04-04T04:59:09.511Z,-0.05
2023-04-04T05:01:48.356Z,-0.04
2023-04-04T05:04:18.957Z,-0.02
2023-04-04T05:06:49.676Z,-0.04
2023-04-04T05:09:20.007Z,-0.04
2023-04-04T05:11:50.442Z,-0.03
2023-04-04T05:14:32.210Z,0.01
2023-04-04T05:17:05.652Z,0.01
2023-04-04T05:19:59.855Z,0.01
2023-04-04T05:22:40.653Z,0.08
2023-04-04T05:25:17.361Z,0.16
2023-04-04T05:27:57.754Z,0.24
2023-04-04T05:30:30.759Z,0.31
2023-04-04T05:33:15.670Z,0.37
2023-04-04T05:35:58.934Z,0.47
2023-04-04T05:38:33.598Z,0.54
2023-04-04T05:41:09.301Z,0.62
2023-04-04T05:43:39.532Z,0.68
2023-04-04T05:46:12.267Z,0.74
2023-04-04T05:49:09.218Z,0.79
2023-04-04T05:51:41.222Z,0.80
2023-04-04T05:54:11.943Z,0.83
2023-04-04T05:56:41.520Z,0.86
2023-04-04T05:59:12.124Z,0.90
2023-04-04T06:01:44.679Z,0.92
2023-04-04T06:04:16.478Z,0.95
2023-04-04T06:06:47.694Z,0.98
2023-04-04T06:09:27.848Z,1.03
2023-04-04T06:11:59.484Z,1.07
2023-04-04T06:14:33.821Z,1.13
2023-04-04T06:17:04.514Z,1.18
2023-04-04T06:19:37.769Z,1.28
2023-04-04T06:22:25.042Z,1.37
2023-04-04T06:25:02.198Z,1.49
2023-04-04T06:27:32.915Z,1.59
2023-04-04T06:30:04.940Z,1.73
2023-04-04T06:32:37.013Z,1.87
2023-04-04T06:35:12.418Z,2.00
2023-04-04T06:37:47.867Z,2.16
2023-04-04T06:40:19.250Z,2.29
2023-04-04T06:42:56.030Z,2.46
2023-04-04T06:45:36.941Z,2.62
2023-04-04T06:48:07.928Z,2.79
2023-04-04T06:50:41.432Z,2.97
2023-04-04T06:53:13.165Z,3.12
2023-04-04T06:55:45.006Z,3.28
2023-04-04T06:58:15.064Z,3.43
2023-04-04T07:00:47.881Z,3.58
2023-04-04T07:03:23.734Z,3.72
2023-04-04T07:06:00.048Z,3.82
2023-04-04T07:08:52.997Z,3.93
2023-04-04T07:11:38.731Z,4.07
2023-04-04T07:14:10.033Z,4.19
2023-04-04T07:16:40.310Z,4.29
2023-04-04T07:19:10.403Z,4.38
2023-04-04T07:21:41.056Z,4.46
2023-04-04T07:24:09.946Z,4.57
2023-04-04T07:26:41.121Z,4.67
2023-04-04T07:29:11.087Z,4.80
2023-04-04T07:31:40.970Z,4.90
2023-04-04T07:34:10.715Z,4.98
2023-04-04T07:36:41.857Z,5.09
2023-04-04T07:39:12.923Z,5.24
2023-04-04T07:41:42.977Z,5.37
2023-04-04T07:44:12.402Z,5.52
2023-04-04T07:46:43.469Z,5.67
2023-04-04T07:49:13.906Z,5.79
2023-04-04T07:51:45.005Z,5.91
2023-04-04T07:54:14.751Z,6.03
2023-04-04T07:56:45.815Z,6.17
2023-04-04T07:59:17.239Z,6.25
2023-04-04T08:01:46.724Z,6.30
2023-04-04T08:04:16.256Z,6.37
2023-04-04T08:06:48.153Z,6.47
2023-04-04T08:09:19.048Z,6.55
2023-04-04T08:11:56.946Z,6.64
2023-04-04T08:16:10.732Z,6.76
2023-04-04T08:18:40.041Z,6.88
2023-04-04T08:21:10.137Z,7.05
2023-04-04T08:23:54.108Z,7.19
2023-04-04T08:26:26.887Z,7.29
2023-04-04T08:29:01.392Z,7.44
2023-04-04T08:31:31.572Z,7.52
2023-04-04T08:34:02.249Z,7.59
2023-04-04T08:36:31.617Z,7.65
2023-04-04T08:39:04.541Z,7.72
2023-04-04T08:41:37.490Z,7.84
2023-04-04T08:44:09.993Z,8.01
2023-04-04T08:46:59.395Z,8.07
2023-04-04T08:49:32.425Z,8.14
2023-04-04T08:52:08.033Z,8.18
2023-04-04T08:55:10.224Z,8.21
2023-04-04T08:57:44.389Z,8.25
2023-04-04T09:00:22.572Z,8.32
2023-04-04T09:03:01.912Z,8.38
2023-04-04T09:05:32.951Z,8.44
2023-04-04T09:08:04.385Z,8.55
2023-04-04T09:11:00.178Z,8.68
2023-04-04T09:13:31.221Z,8.85
2023-04-04T09:16:08.537Z,9.00
2023-04-04T09:19:04.000Z,9.11
2023-04-04T09:21:36.477Z,9.23
2023-04-04T09:24:08.530Z,9.37
2023-04-04T09:26:58.011Z,9.46
2023-04-04T09:29:30.145Z,9.50
2023-04-04T09:32:06.808Z,9.58
2023-04-04T09:34:41.455Z,9.68
2023-04-04T09:37:16.304Z,9.78
2023-04-04T09:39:47.232Z,9.85
2023-04-04T09:42:18.208Z,9.98
2023-04-04T09:44:48.633Z,10.07
2023-04-04T09:47:43.961Z,10.15
2023-04-04T09:50:30.655Z,10.29
2023-04-04T09:53:02.860Z,10.37
2023-04-04T09:55:42.339Z,10.50
2023-04-04T09:58:24.527Z,10.61
2023-04-04T10:01:00.869Z,10.71
2023-04-04T10:03:35.542Z,10.76
2023-04-04T10:06:07.934Z,10.79
2023-04-04T10:08:41.576Z,10.84
2023-04-04T10:11:14.846Z,10.90
2023-04-04T10:13:48.291Z,11.00
2023-04-04T10:16:29.053Z,11.13
2023-04-04T10:19:01.731Z,11.28
2023-04-04T10:21:34.412Z,11.42
2023-04-04T10:24:10.773Z,11.46
2023-04-04T10:26:41.144Z,11.39
2023-04-04T10:29:15.204Z,11.43
2023-04-04T10:31:57.108Z,11.61
2023-04-04T10:34:41.604Z,11.76
2023-04-04T10:37:42.132Z,11.87
2023-04-04T10:40:41.636Z,12.09
2023-04-04T10:43:36.236Z,12.38
2023-04-04T10:46:48.023Z,12.71
2023-04-04T10:49:42.696Z,13.00
2023-04-04T10:52:14.453Z,13.27
2023-04-04T10:54:45.736Z,13.53
2023-04-04T10:57:15.814Z,13.71
2023-04-04T11:00:07.206Z,13.82
2023-04-04T11:02:56.834Z,13.82
2023-04-04T11:05:42.522Z,14.00
2023-04-04T11:08:14.985Z,14.14
2023-04-04T11:10:47.042Z,14.26
2023-04-04T11:13:46.180Z,14.35
2023-04-04T11:16:16.762Z,14.51
2023-04-04T11:19:03.022Z,14.67
2023-04-04T11:21:35.067Z,14.74
2023-04-04T11:24:21.623Z,14.82
2023-04-04T11:27:02.380Z,14.83
2023-04-04T11:30:03.864Z,14.89
2023-04-04T11:33:06.950Z,15.07
2023-04-04T11:36:08.150Z,15.04
2023-04-04T11:38:42.953Z,15.02
2023-04-04T11:41:18.682Z,15.04
2023-04-04T11:43:55.998Z,15.14
2023-04-04T11:46:45.184Z,15.33
2023-04-04T11:49:32.134Z,15.64
2023-04-04T11:52:14.281Z,16.02
2023-04-04T11:54:47.105Z,16.39
2023-04-04T11:57:20.005Z,16.58
2023-04-04T11:59:57.711Z,16.67
2023-04-04T12:02:32.449Z,16.87
2023-04-04T12:05:24.288Z,17.28
2023-04-04T12:07:58.586Z,17.77
2023-04-04T12:10:31.975Z,18.01
2023-04-04T12:13:14.078Z,17.89
2023-04-04T12:15:46.248Z,17.64
2023-04-04T12:18:29.363Z,17.49
2023-04-04T12:21:17.174Z,17.71
2023-04-04T12:23:50.432Z,18.00
2023-04-04T12:26:23.825Z,18.44
2023-04-04T12:29:00.259Z,18.80
2023-04-04T12:31:30.946Z,19.07
2023-04-04T12:34:01.831Z,19.14
2023-04-04T12:36:40.660Z,19.18
2023-04-04T12:39:14.526Z,19.50
2023-04-04T12:41:56.266Z,19.76
2023-04-04T12:44:40.326Z,19.79
2023-04-04T12:47:17.204Z,20.08
2023-04-04T12:49:50.316Z,20.27
2023-04-04T12:52:36.562Z,20.60
2023-04-04T12:55:13.181Z,21.10
2023-04-04T12:57:43.531Z,21.55
2023-04-04T13:00:18.431Z,21.73
2023-04-04T13:02:55.820Z,21.83
2023-04-04T13:05:30.206Z,22.05
2023-04-04T13:08:09.314Z,22.04
2023-04-04T13:11:06.860Z,22.04
2023-04-04T13:13:40.924Z,22.20
2023-04-04T13:16:12.105Z,21.94
2023-04-04T13:18:52.355Z,21.94
2023-04-04T13:22:02.817Z,21.95
2023-04-04T13:24:54.770Z,21.81
2023-04-04T13:27:33.268Z,21.66
2023-04-04T13:30:02.522Z,21.42
2023-04-04T13:32:47.630Z,21.11
2023-04-04T13:35:17.891Z,21.09
2023-04-04T13:37:48.167Z,21.69
2023-04-04T13:40:20.019Z,22.12
2023-04-04T13:42:53.387Z,21.99
2023-04-04T13:45:28.889Z,21.74
2023-04-04T13:47:59.989Z,21.45
2023-04-04T13:50:34.016Z,21.43
2023-04-04T13:53:03.548Z,21.95
2023-04-04T13:55:34.225Z,22.49
2023-04-04T13:58:13.372Z,22.78
2023-04-04T14:00:43.197Z,22.89
2023-04-04T14:03:13.360Z,22.89
2023-04-04T14:05:43.202Z,22.79
2023-04-04T14:08:16.455Z,22.75
2023-04-04T14:10:47.043Z,22.97
2023-04-04T14:13:19.615Z,23.28
2023-04-04T14:15:57.112Z,23.44
2023-04-04T14:18:28.253Z,23.66
2023-04-04T14:21:14.452Z,24.00
2023-04-04T14:24:14.633Z,24.23
2023-04-04T14:26:46.626Z,24.41
2023-04-04T14:29:20.420Z,24.53
2023-04-04T14:32:03.816Z,24.65
2023-04-04T14:34:33.999Z,25.31
2023-04-04T14:37:03.792Z,25.42
2023-04-04T14:39:33.493Z,25.44
2023-04-04T14:42:05.168Z,25.36
2023-04-04T14:44:38.469Z,25.11
2023-04-04T14:47:32.360Z,24.93
2023-04-04T14:50:03.968Z,25.32
2023-04-04T14:52:35.035Z,25.23
2023-04-04T14:55:31.989Z,24.46
2023-04-04T14:58:03.095Z,23.92
2023-04-04T15:00:39.132Z,23.70
2023-04-04T15:03:11.591Z,23.99
2023-04-04T15:05:44.031Z,23.87
2023-04-04T15:08:28.887Z,23.24
2023-04-04T15:11:06.411Z,22.64
2023-04-04T15:13:58.616Z,22.31
2023-04-04T15:16:44.564Z,22.57
2023-04-04T15:19:15.909Z,22.79
2023-04-04T15:22:01.357Z,22.64
2023-04-04T15:24:34.350Z,22.31
2023-04-04T15:27:04.429Z,22.04
2023-04-04T15:29:35.588Z,22.02
2023-04-04T15:32:08.601Z,22.07
2023-04-04T15:34:59.903Z,22.19
2023-04-04T15:37:53.879Z,22.30
2023-04-04T15:40:29.529Z,22.15
2023-04-04T15:43:12.924Z,21.86
2023-04-04T15:46:37.374Z,21.49
2023-04-04T15:49:11.196Z,20.97
2023-04-04T15:51:43.987Z,20.71
2023-04-04T15:54:14.461Z,20.33
2023-04-04T15:56:48.332Z,20.06
2023-04-04T15:59:19.371Z,19.64
2023-04-04T16:01:48.913Z,19.14
2023-04-04T16:04:22.990Z,18.75
2023-04-04T16:06:55.407Z,18.45
2023-04-04T16:09:33.926Z,18.32
2023-04-04T16:12:04.783Z,18.24
2023-04-04T16:14:48.757Z,17.84
2023-04-04T16:20:49.180Z,16.86
2023-04-04T16:23:27.099Z,16.60
2023-04-04T16:26:01.591Z,16.25
2023-04-04T16:28:35.125Z,15.89
2023-04-04T16:31:06.226Z,15.49
2023-04-04T16:33:42.706Z,15.22
2023-04-04T16:36:16.844Z,14.99
2023-04-04T16:38:50.583Z,14.72
2023-04-04T16:42:10.285Z,14.47
2023-04-04T16:44:40.418Z,14.11
2023-04-04T16:47:30.847Z,13.80
2023-04-04T16:50:17.792Z,13.48
2023-04-04T16:52:50.160Z,13.19
2023-04-04T16:55:23.941Z,12.94
2023-04-04T16:57:58.231Z,12.74
2023-04-04T17:00:30.682Z,12.52
2023-04-04T17:03:05.357Z,12.36
2023-04-04T17:05:38.403Z,12.21
2023-04-04T17:08:26.413Z,12.05
2023-04-04T17:11:00.327Z,11.92
2023-04-04T17:13:32.307Z,11.78
2023-04-04T17:16:03.564Z,11.68
2023-04-04T17:18:39.456Z,11.48
2023-04-04T17:21:27.888Z,11.31
2023-04-04T17:24:19.966Z,11.12
2023-04-04T17:26:52.737Z,10.94
2023-04-04T17:29:50.412Z,10.77
2023-04-04T17:32:52.749Z,10.64
2023-04-04T17:35:27.531Z,10.55
2023-04-04T17:38:00.862Z,10.74
2023-04-04T17:40:33.136Z,11.48
2023-04-04T17:43:10.035Z,12.01
2023-04-04T17:45:41.359Z,11.82
2023-04-04T17:48:17.154Z,11.46
2023-04-04T17:51:04.407Z,11.12
2023-04-04T17:53:41.518Z,10.80
2023-04-04T17:56:15.896Z,10.59
2023-04-04T17:58:45.187Z,10.43
2023-04-04T18:01:17.668Z,10.26
2023-04-04T18:03:58.288Z,10.08
2023-04-04T18:06:58.260Z,9.94
2023-04-04T18:09:32.221Z,9.78
2023-04-04T18:12:07.397Z,9.64
2023-04-04T18:14:37.915Z,9.51
2023-04-04T18:17:27.958Z,9.39
2023-04-04T18:20:04.810Z,9.30
2023-04-04T18:23:02.067Z,9.19
2023-04-04T18:28:48.802Z,8.95
2023-04-04T18:31:26.564Z,8.86
2023-04-04T18:34:02.176Z,8.79
2023-04-04T18:36:31.961Z,8.69
2023-04-04T18:39:04.623Z,8.62
2023-04-04T18:41:35.682Z,8.58
2023-04-04T18:44:34.775Z,8.52
2023-04-04T18:47:07.112Z,8.46
2023-04-04T18:49:47.901Z,8.40
2023-04-04T18:52:23.335Z,8.32
2023-04-04T18:55:02.687Z,8.23
2023-04-04T18:57:41.199Z,8.13
2023-04-04T19:00:16.245Z,8.00
2023-04-04T19:02:47.625Z,7.84
2023-04-04T19:05:41.372Z,7.67
2023-04-04T19:08:13.314Z,7.48
2023-04-04T19:10:47.998Z,7.32
2023-04-04T19:13:21.388Z,7.21
2023-04-04T19:15:57.821Z,7.08
2023-04-04T19:18:53.498Z,6.94
2023-04-04T19:21:48.919Z,6.80
2023-04-04T19:24:25.717Z,6.71
2023-04-04T19:27:05.405Z,6.62
2023-04-04T19:29:41.023Z,6.54
2023-04-04T19:32:22.698Z,6.45
2023-04-04T19:35:56.580Z,6.35
2023-04-04T19:38:35.863Z,6.35
2023-04-04T19:41:38.631Z,6.30
2023-04-04T19:44:16.250Z,6.31
2023-04-04T19:47:03.583Z,6.33
2023-04-04T19:50:15.337Z,6.28
2023-04-04T19:53:00.890Z,6.29
2023-04-04T19:56:07.974Z,6.29
2023-04-04T19:58:55.090Z,6.27
2023-04-04T20:01:33.910Z,6.25
2023-04-04T20:04:15.858Z,6.21
2023-04-04T20:07:12.412Z,6.15
2023-04-04T20:09:42.952Z,6.09
2023-04-04T20:12:16.524Z,6.03
2023-04-04T20:17:56.952Z,5.96
2023-04-04T20:21:40.502Z,5.91
2023-04-04T20:24:14.088Z,5.90
2023-04-04T20:27:05.858Z,5.88
2023-04-04T20:29:37.929Z,5.89
2023-04-04T20:32:10.237Z,5.90
2023-04-04T20:34:57.886Z,5.88
2023-04-04T20:37:28.783Z,5.87
2023-04-04T20:40:00.252Z,5.85
2023-04-04T20:42:42.086Z,5.78
2023-04-04T20:46:05.303Z,5.70
2023-04-04T20:49:07.644Z,5.63
2023-04-04T20:51:41.751Z,5.57
2023-04-04T20:54:15.277Z,5.52
2023-04-04T20:56:57.729Z,5.47
2023-04-04T20:59:33.167Z,5.40
2023-04-04T21:02:22.086Z,5.31
2023-04-04T21:04:57.766Z,5.21
2023-04-04T21:07:44.051Z,5.12
2023-04-04T21:11:08.364Z,4.97
2023-04-04T21:13:42.198Z,4.90
2023-04-04T21:16:17.136Z,4.83
2023-04-04T21:19:11.608Z,4.74
2023-04-04T21:21:43.457Z,4.67
2023-04-04T21:24:25.816Z,4.61
2023-04-04T21:27:08.364Z,4.56
2023-04-04T21:29:38.424Z,4.51
2023-04-04T21:32:08.978Z,4.46
2023-04-04T21:34:58.982Z,4.38
2023-04-04T21:37:33.706Z,4.32
2023-04-04T21:40:11.795Z,4.25
2023-04-04T21:42:42.294Z,4.22
2023-04-04T21:45:12.973Z,4.17
2023-04-04T21:47:56.410Z,4.11
2023-04-04T21:50:51.728Z,4.05
2023-04-04T21:53:22.867Z,3.97
2023-04-04T21:56:11.107Z,3.92
2023-04-04T21:58:41.428Z,3.87
2023-04-04T22:01:11.526Z,3.83
2023-04-04T22:03:42.535Z,3.79
2023-04-04T22:06:12.259Z,3.75
2023-04-04T22:08:42.845Z,3.72
2023-04-04T22:11:19.686Z,3.65
2023-04-04T22:13:50.172Z,3.60
2023-04-04T22:16:27.287Z,3.58
2023-04-04T22:18:59.335Z,3.52
2023-04-04T22:21:37.049Z,3.47
2023-04-04T22:24:11.384Z,3.41
2023-04-04T22:27:40.707Z,3.31
2023-04-04T22:30:42.861Z,3.27
2023-04-04T22:33:42.260Z,3.21
2023-04-04T22:36:12.465Z,3.18
2023-04-04T22:38:42.025Z,3.14
2023-04-04T22:41:28.877Z,3.09
2023-04-04T22:43:59.887Z,3.05
2023-04-04T22:46:42.011Z,3.00
2023-04-04T22:49:48.767Z,2.94
2023-04-04T22:53:13.354Z,2.86
2023-04-04T22:56:06.452Z,2.82
2023-04-04T22:58:37.911Z,2.79
2023-04-04T23:01:38.346Z,2.74
2023-04-04T23:04:07.967Z,2.70
2023-04-04T23:06:47.208Z,2.67
2023-04-04T23:09:17.256Z,2.64
2023-04-04T23:11:51.914Z,2.59
2023-04-04T23:14:34.345Z,2.53
2023-04-04T23:17:05.343Z,2.47
2023-04-04T23:19:48.001Z,2.42
2023-04-04T23:25:09.057Z,2.34
2023-04-04T23:27:50.250Z,2.30
2023-04-04T23:30:50.020Z,2.26
2023-04-04T23:33:31.250Z,2.23
2023-04-04T23:36:00.640Z,2.18
2023-04-04T23:38:35.626Z,2.14
2023-04-04T23:41:08.849Z,2.13
2023-04-04T23:47:12.077Z,2.03
2023-04-04T23:50:02.342Z,2.01
2023-04-04T23:52:39.734Z,1.97
2023-04-04T23:55:10.542Z,1.94
2023-04-04T23:57:39.981Z,1.92
